Kezdőlap
METAR-TAF:

METAR-TAF

Repülőterek :

Szunani nemzetközi repülőtér

Phenjan, Észak-Korea

földrajzi szélesség: 39-02N, földrajzi hosszúság: 125-47E, magasság: 36 m

METAR: hiányzik

Idő: 04:12 (19:42 UTC)

Előrejelzés

A jelentés 16 órával és 32 perccel ezelõtt készült, 03:10 UTC
Az előrejelzés 27-én 06 óra UTC és 28-én 06 óra UTC között érvényes
Nyugat-északnyugati szél 8 kt
Látótávolság 10 km, vagy több
felhőtlen 1500 m magasságban, és nincs gomolyfelhõ
27-én 10 óra UTC és 27-én 15 óra UTC között ideiglenes
Szakadozott felhőzet 2000 lábon

TAF: ZKPY 270310Z 2706/2806 30004MPS CAVOK TX26/2707Z TN14/2722Z TEMPO 2710/2715 BKN020

Meteorológiai megfigyelések és előrejelzések több, mint 4000 repülőtéren (METAR és TAF jelentéseket).

A térképen piros és sárga pontok jelzik az elérhető meteorológiai állomásokat.

Mozgassa az egeret a pont fölött, hogy megjelenjen az állomás neve.

Azután kattintson az időjárási megfigyelések és előrejelzések megtekintéséhez.

A térkép megváltoztatása: kattintson a fekete keresztel jelölt zöld gombra ráközelítéshez, a vonallal jelölt zöld gombra távolításhoz, vagy a zöld nyilakra a szomszédos térképek eléréséhez.


METAR-TAF: